createdAt,value
2018-05-06T00:00:08.663Z,8.80
2018-05-06T00:01:08.678Z,8.90
2018-05-06T00:02:08.693Z,9.50
2018-05-06T00:03:08.707Z,8.70
2018-05-06T00:04:08.723Z,9.40
2018-05-06T00:05:08.737Z,8.80
2018-05-06T00:06:08.752Z,9.20
2018-05-06T00:07:08.772Z,9.10
2018-05-06T00:08:08.782Z,8.70
2018-05-06T00:09:08.796Z,9.30
2018-05-06T00:10:08.812Z,9.10
2018-05-06T00:11:08.824Z,10.20
2018-05-06T00:12:08.838Z,9.30
2018-05-06T00:13:08.855Z,10.20
2018-05-06T00:14:08.868Z,8.80
2018-05-06T00:15:08.967Z,8.70
2018-05-06T00:16:08.896Z,8.30
2018-05-06T00:17:08.912Z,8.40
2018-05-06T00:18:08.926Z,9.30
2018-05-06T00:19:08.942Z,7.50
2018-05-06T00:20:08.956Z,8.40
2018-05-06T00:21:08.969Z,8.30
2018-05-06T00:22:08.984Z,7.60
2018-05-06T00:23:08.997Z,8.60
2018-05-06T00:24:09.015Z,7.90
2018-05-06T00:25:09.029Z,7.20
2018-05-06T00:26:09.043Z,8.20
2018-05-06T00:27:09.056Z,8.10
2018-05-06T00:28:09.072Z,8.20
2018-05-06T00:29:09.085Z,7.90
2018-05-06T00:30:09.103Z,8.10
2018-05-06T00:31:09.118Z,8.50
2018-05-06T00:32:09.129Z,9.10
2018-05-06T00:33:09.183Z,8.10
2018-05-06T00:34:09.167Z,9.00
2018-05-06T00:35:09.173Z,8.90
2018-05-06T00:36:09.187Z,9.30
2018-05-06T00:37:09.199Z,8.50
2018-05-06T00:38:09.218Z,9.80
2018-05-06T00:39:09.237Z,10.70
2018-05-06T00:40:09.246Z,9.30
2018-05-06T00:41:09.261Z,9.30
2018-05-06T00:42:09.272Z,9.40
2018-05-06T00:43:09.287Z,9.20
2018-05-06T00:44:09.301Z,9.90
2018-05-06T00:45:09.328Z,9.90
2018-05-06T00:46:09.330Z,10.10
2018-05-06T00:47:09.344Z,9.80
2018-05-06T00:48:09.358Z,9.10
2018-05-06T00:49:09.372Z,9.80
2018-05-06T00:50:09.386Z,9.80
2018-05-06T00:51:09.400Z,8.80
2018-05-06T00:52:09.413Z,9.00
2018-05-06T00:53:09.428Z,8.20
2018-05-06T00:54:09.443Z,8.00
2018-05-06T00:55:09.455Z,9.10
2018-05-06T00:56:09.473Z,8.80
2018-05-06T00:57:09.483Z,8.40
2018-05-06T00:58:09.499Z,8.80
2018-05-06T00:59:09.514Z,8.80
2018-05-06T01:00:09.533Z,9.50
2018-05-06T01:01:09.542Z,9.70
2018-05-06T01:02:09.556Z,9.50
2018-05-06T01:03:09.572Z,9.30
2018-05-06T01:04:09.590Z,9.10
2018-05-06T01:05:09.598Z,9.60
2018-05-06T01:06:09.613Z,9.40
2018-05-06T01:07:09.627Z,9.50
2018-05-06T01:08:09.640Z,10.30
2018-05-06T01:09:09.655Z,9.40
2018-05-06T01:10:09.674Z,8.80
2018-05-06T01:11:09.685Z,9.70
2018-05-06T01:12:09.697Z,9.70
2018-05-06T01:13:09.714Z,8.90
2018-05-06T01:14:09.726Z,9.80
2018-05-06T01:15:09.740Z,9.60
2018-05-06T01:16:09.754Z,9.10
2018-05-06T01:17:09.767Z,9.00
2018-05-06T01:18:09.784Z,9.00
2018-05-06T01:19:09.809Z,9.20
2018-05-06T01:20:09.809Z,9.10
2018-05-06T01:21:09.827Z,8.90
2018-05-06T01:22:09.838Z,9.30
2018-05-06T01:23:09.855Z,8.40
2018-05-06T01:24:09.867Z,8.00
2018-05-06T01:25:09.882Z,9.80
2018-05-06T01:26:09.894Z,9.20
2018-05-06T01:27:09.909Z,9.10
2018-05-06T01:28:09.925Z,8.40
2018-05-06T01:29:09.998Z,7.90
2018-05-06T01:30:09.950Z,9.00
2018-05-06T01:31:09.966Z,8.70
2018-05-06T01:32:09.978Z,8.60
2018-05-06T01:33:09.993Z,8.80
2018-05-06T01:34:10.008Z,9.20
2018-05-06T01:35:10.022Z,8.90
2018-05-06T01:36:10.035Z,9.90
2018-05-06T01:37:10.049Z,9.00
2018-05-06T01:38:10.064Z,9.00
2018-05-06T01:39:10.076Z,8.80
2018-05-06T01:40:10.091Z,8.70
2018-05-06T01:41:10.105Z,9.60
2018-05-06T01:42:10.119Z,8.90
2018-05-06T01:43:10.139Z,8.40
2018-05-06T01:44:10.148Z,8.60
2018-05-06T01:45:10.160Z,8.60
2018-05-06T01:46:10.175Z,7.90
2018-05-06T01:47:10.189Z,7.90
2018-05-06T01:48:10.203Z,8.70
2018-05-06T01:49:10.218Z,8.20
2018-05-06T01:50:10.231Z,8.00
2018-05-06T01:51:10.244Z,8.10
2018-05-06T01:52:10.258Z,8.50
2018-05-06T01:53:10.272Z,8.20
2018-05-06T01:54:10.285Z,8.90
2018-05-06T01:55:10.300Z,8.20
2018-05-06T01:56:10.312Z,8.20
2018-05-06T01:57:10.327Z,7.60
2018-05-06T01:58:10.341Z,8.20
2018-05-06T01:59:10.357Z,8.40
2018-05-06T02:00:10.369Z,8.50
2018-05-06T02:01:10.384Z,8.60
2018-05-06T02:02:10.397Z,8.80
2018-05-06T02:03:10.411Z,8.30
2018-05-06T02:04:10.425Z,8.20
2018-05-06T02:05:10.439Z,9.00
2018-05-06T02:06:10.454Z,8.70
2018-05-06T02:07:10.468Z,8.90
2018-05-06T02:08:10.480Z,8.70
2018-05-06T02:09:10.494Z,8.00
2018-05-06T02:10:10.508Z,7.90
2018-05-06T02:11:10.524Z,8.30
2018-05-06T02:12:10.536Z,8.90
2018-05-06T02:13:10.552Z,8.40
2018-05-06T02:14:10.563Z,8.50
2018-05-06T02:15:10.580Z,7.70
2018-05-06T02:16:10.593Z,9.50
2018-05-06T02:17:10.606Z,8.80
2018-05-06T02:18:10.620Z,8.10
2018-05-06T02:19:10.636Z,8.70
2018-05-06T02:20:10.647Z,8.00
2018-05-06T02:21:10.661Z,8.30
2018-05-06T02:22:10.676Z,8.20
2018-05-06T02:23:10.689Z,8.70
2018-05-06T02:24:10.705Z,7.70
2018-05-06T02:25:10.718Z,7.90
2018-05-06T02:26:10.732Z,8.60
2018-05-06T02:27:10.747Z,7.70
2018-05-06T02:28:10.763Z,8.30
2018-05-06T02:29:10.781Z,7.90
2018-05-06T02:30:10.787Z,7.30
2018-05-06T02:31:10.804Z,7.50
2018-05-06T02:32:10.815Z,8.30
2018-05-06T02:33:10.829Z,7.90
2018-05-06T02:34:10.844Z,7.40
2018-05-06T02:35:10.865Z,8.30
2018-05-06T02:36:10.870Z,7.50
2018-05-06T02:37:10.886Z,7.80
2018-05-06T02:38:10.903Z,8.00
2018-05-06T02:39:10.913Z,7.80
2018-05-06T02:40:10.927Z,8.60
2018-05-06T02:41:10.942Z,8.80
2018-05-06T02:42:10.953Z,8.40
2018-05-06T02:43:10.969Z,9.00
2018-05-06T02:44:10.982Z,8.60
2018-05-06T02:45:10.996Z,9.20
2018-05-06T02:46:11.014Z,9.00
2018-05-06T02:47:11.029Z,8.70
2018-05-06T02:48:11.037Z,7.80
2018-05-06T02:49:11.052Z,7.00
2018-05-06T02:50:11.066Z,7.40
2018-05-06T02:51:11.081Z,7.70
2018-05-06T02:52:11.094Z,7.60
2018-05-06T02:53:11.113Z,7.50
2018-05-06T02:54:11.121Z,7.60
2018-05-06T02:55:11.136Z,7.50
2018-05-06T02:56:11.150Z,7.20
2018-05-06T02:57:11.162Z,7.40
2018-05-06T02:58:11.179Z,8.20
2018-05-06T02:59:11.190Z,7.40
2018-05-06T03:00:11.203Z,7.90
2018-05-06T03:01:11.217Z,7.30
2018-05-06T03:02:11.234Z,7.70
2018-05-06T03:03:11.248Z,7.70
2018-05-06T03:04:11.259Z,8.10
2018-05-06T03:05:11.274Z,6.70
2018-05-06T03:06:11.287Z,6.70
2018-05-06T03:07:11.303Z,7.10
2018-05-06T03:08:11.315Z,6.80
2018-05-06T03:09:11.327Z,7.30
2018-05-06T03:10:11.342Z,6.60
2018-05-06T03:11:11.357Z,6.60
2018-05-06T03:12:11.370Z,6.90
2018-05-06T03:13:11.384Z,6.90
2018-05-06T03:14:11.398Z,6.90
2018-05-06T03:15:11.418Z,6.80
2018-05-06T03:16:11.426Z,6.80
2018-05-06T03:17:11.440Z,6.80
2018-05-06T03:18:11.457Z,6.30
2018-05-06T03:19:11.467Z,5.80
2018-05-06T03:20:11.481Z,5.70
2018-05-06T03:21:11.495Z,5.50
2018-05-06T03:22:11.509Z,5.00
2018-05-06T03:23:11.522Z,5.50
2018-05-06T03:24:11.536Z,5.20
2018-05-06T03:25:11.549Z,5.20
2018-05-06T03:26:11.563Z,4.90
2018-05-06T03:27:11.578Z,5.40
2018-05-06T03:28:11.595Z,4.50
2018-05-06T03:29:11.606Z,5.10
2018-05-06T03:30:11.622Z,5.10
2018-05-06T03:31:11.635Z,5.20
2018-05-06T03:32:11.647Z,4.90
2018-05-06T03:33:11.660Z,4.70
2018-05-06T03:34:11.675Z,5.30
2018-05-06T03:35:11.689Z,4.70
2018-05-06T03:36:11.703Z,4.00
2018-05-06T03:37:11.717Z,4.40
2018-05-06T03:38:11.731Z,3.70
2018-05-06T03:39:11.746Z,4.30
2018-05-06T03:40:11.759Z,4.90
2018-05-06T03:41:11.771Z,4.00
2018-05-06T03:42:11.786Z,4.40
2018-05-06T03:43:11.801Z,4.50
2018-05-06T03:44:11.813Z,4.00
2018-05-06T03:45:11.827Z,4.10
2018-05-06T03:46:11.846Z,4.60
2018-05-06T03:47:11.856Z,3.80
2018-05-06T03:48:11.869Z,3.60
2018-05-06T03:49:11.884Z,4.00
2018-05-06T03:50:11.899Z,4.00
2018-05-06T03:51:11.911Z,4.00
2018-05-06T03:52:11.923Z,4.00
2018-05-06T03:53:11.938Z,3.70
2018-05-06T03:54:11.952Z,3.90
2018-05-06T03:55:11.965Z,3.40
2018-05-06T03:56:11.978Z,3.50
2018-05-06T03:57:12.000Z,3.80
2018-05-06T03:58:12.007Z,3.20
2018-05-06T03:59:12.021Z,3.60
2018-05-06T04:00:12.033Z,3.30
2018-05-06T04:01:12.048Z,3.70
2018-05-06T04:02:12.066Z,3.80
2018-05-06T04:03:12.125Z,3.80
2018-05-06T04:04:12.091Z,3.90
2018-05-06T04:05:12.103Z,3.60
2018-05-06T04:06:12.117Z,3.60
2018-05-06T04:07:12.136Z,4.00
2018-05-06T04:08:12.143Z,3.60
2018-05-06T04:09:12.157Z,3.70
2018-05-06T04:10:12.169Z,4.40
2018-05-06T04:11:12.185Z,3.90
2018-05-06T04:12:12.197Z,3.60
2018-05-06T04:13:12.212Z,3.40
2018-05-06T04:14:12.224Z,4.10
2018-05-06T04:15:12.237Z,3.80
2018-05-06T04:16:12.251Z,4.00
2018-05-06T04:17:12.264Z,3.70
2018-05-06T04:18:12.280Z,3.80
2018-05-06T04:19:12.292Z,3.70
2018-05-06T04:20:12.315Z,4.10
2018-05-06T04:21:12.358Z,3.30
2018-05-06T04:22:12.335Z,3.70
2018-05-06T04:23:12.347Z,3.70
2018-05-06T04:24:12.357Z,4.10
2018-05-06T04:25:12.372Z,3.80
2018-05-06T04:26:12.387Z,3.80
2018-05-06T04:27:12.401Z,4.00
2018-05-06T04:28:12.413Z,4.00
2018-05-06T04:29:12.427Z,3.50
2018-05-06T04:30:12.444Z,3.80
2018-05-06T04:31:12.457Z,3.90
2018-05-06T04:32:12.468Z,4.70
2018-05-06T04:33:12.481Z,4.60
2018-05-06T04:34:12.495Z,3.90
2018-05-06T04:35:12.507Z,4.40
2018-05-06T04:36:12.520Z,4.40
2018-05-06T04:37:12.534Z,3.90
2018-05-06T04:38:12.548Z,4.10
2018-05-06T04:39:12.568Z,3.80
2018-05-06T04:40:12.576Z,3.80
2018-05-06T04:41:12.590Z,3.80
2018-05-06T04:42:12.601Z,4.10
2018-05-06T04:43:12.616Z,4.00
2018-05-06T04:44:12.686Z,4.40
2018-05-06T04:45:12.644Z,4.50
2018-05-06T04:46:12.653Z,4.70
2018-05-06T04:47:12.671Z,4.60
2018-05-06T04:48:12.683Z,4.70
2018-05-06T04:49:12.694Z,5.10
2018-05-06T04:50:12.708Z,4.80
2018-05-06T04:51:12.721Z,4.80
2018-05-06T04:52:12.733Z,4.40
2018-05-06T04:53:12.749Z,4.10
2018-05-06T04:54:12.761Z,4.10
2018-05-06T04:55:12.775Z,3.90
2018-05-06T04:56:12.787Z,4.70
2018-05-06T04:57:12.800Z,3.70
2018-05-06T04:58:12.817Z,3.60
2018-05-06T04:59:12.828Z,4.00
2018-05-06T05:00:12.840Z,3.30
2018-05-06T05:01:12.853Z,3.70
2018-05-06T05:02:12.869Z,3.60
2018-05-06T05:03:12.886Z,4.10
2018-05-06T05:04:12.895Z,3.70
2018-05-06T05:05:12.907Z,3.70
2018-05-06T05:06:12.927Z,4.10
2018-05-06T05:07:12.935Z,4.00
2018-05-06T05:08:12.948Z,3.50
2018-05-06T05:09:12.962Z,3.50
2018-05-06T05:10:12.976Z,3.70
2018-05-06T05:11:12.989Z,4.00
2018-05-06T05:12:13.003Z,3.40
2018-05-06T05:13:13.015Z,3.80
2018-05-06T05:14:13.030Z,3.40
2018-05-06T05:15:13.043Z,3.80
2018-05-06T05:16:13.055Z,3.60
2018-05-06T05:17:13.070Z,4.20
2018-05-06T05:18:13.087Z,3.90
2018-05-06T05:19:13.097Z,3.30
2018-05-06T05:20:13.115Z,3.50
2018-05-06T05:21:13.184Z,3.80
2018-05-06T05:22:13.137Z,3.60
2018-05-06T05:23:13.150Z,3.50
2018-05-06T05:24:13.164Z,4.10
2018-05-06T05:25:13.178Z,4.50
2018-05-06T05:26:13.190Z,3.90
2018-05-06T05:27:13.206Z,3.90
2018-05-06T05:28:13.217Z,4.20
2018-05-06T05:29:13.232Z,4.30
2018-05-06T05:30:13.246Z,4.50
2018-05-06T05:31:13.259Z,4.40
2018-05-06T05:32:13.272Z,4.70
2018-05-06T05:33:13.289Z,3.90
2018-05-06T05:34:13.304Z,4.20
2018-05-06T05:35:13.315Z,3.60
2018-05-06T05:36:13.331Z,3.90
2018-05-06T05:37:13.342Z,3.90
2018-05-06T05:38:13.354Z,4.00
2018-05-06T05:39:13.369Z,3.70
2018-05-06T05:40:13.386Z,4.10
2018-05-06T05:41:13.397Z,4.60
2018-05-06T05:42:13.412Z,4.40
2018-05-06T05:43:13.425Z,4.40
2018-05-06T05:44:13.435Z,5.00
2018-05-06T05:45:13.450Z,4.40
2018-05-06T05:46:13.463Z,4.90
2018-05-06T05:47:13.478Z,4.80
2018-05-06T05:48:13.491Z,4.50
2018-05-06T05:49:13.505Z,5.10
2018-05-06T05:50:13.520Z,5.30
2018-05-06T05:51:13.536Z,5.30
2018-05-06T05:52:13.545Z,5.60
2018-05-06T05:53:13.562Z,5.50
2018-05-06T05:54:13.579Z,5.00
2018-05-06T05:55:13.596Z,6.00
2018-05-06T05:56:13.603Z,5.90
2018-05-06T05:57:13.622Z,6.10
2018-05-06T05:58:13.631Z,6.20
2018-05-06T05:59:13.643Z,6.10
2018-05-06T06:00:13.657Z,6.30
2018-05-06T06:01:13.672Z,5.50
2018-05-06T06:02:13.684Z,5.60
2018-05-06T06:03:13.700Z,5.50
2018-05-06T06:04:13.713Z,5.20
2018-05-06T06:05:13.728Z,4.90
2018-05-06T06:06:13.741Z,4.50
2018-05-06T06:07:13.757Z,4.80
2018-05-06T06:08:13.770Z,4.60
2018-05-06T06:09:13.783Z,4.30
2018-05-06T06:10:13.798Z,5.00
2018-05-06T06:11:13.812Z,4.30
2018-05-06T06:12:13.827Z,5.00
2018-05-06T06:13:13.838Z,4.50
2018-05-06T06:14:13.854Z,4.70
2018-05-06T06:15:13.869Z,4.90
2018-05-06T06:16:13.885Z,5.00
2018-05-06T06:17:13.897Z,5.50
2018-05-06T06:18:13.911Z,5.70
2018-05-06T06:19:13.924Z,5.60
2018-05-06T06:20:13.937Z,5.70
2018-05-06T06:21:13.953Z,5.50
2018-05-06T06:22:13.967Z,4.90
2018-05-06T06:23:13.982Z,5.00
2018-05-06T06:24:14.003Z,4.20
2018-05-06T06:25:14.011Z,4.00
2018-05-06T06:26:14.023Z,4.60
2018-05-06T06:27:14.043Z,4.60
2018-05-06T06:28:14.052Z,4.70
2018-05-06T06:29:14.063Z,4.20
2018-05-06T06:30:14.082Z,4.60
2018-05-06T06:31:14.094Z,4.70
2018-05-06T06:32:14.109Z,5.40
2018-05-06T06:33:14.126Z,5.40
2018-05-06T06:34:14.137Z,4.80
2018-05-06T06:35:14.157Z,5.80
2018-05-06T06:36:14.172Z,5.60
2018-05-06T06:37:14.181Z,4.90
2018-05-06T06:38:14.252Z,6.10
2018-05-06T06:39:14.210Z,5.40
2018-05-06T06:40:14.226Z,4.30
2018-05-06T06:41:14.238Z,4.60
2018-05-06T06:42:14.253Z,4.40
2018-05-06T06:43:14.268Z,4.30
2018-05-06T06:44:14.279Z,4.30
2018-05-06T06:45:14.295Z,4.60
2018-05-06T06:46:14.310Z,4.70
2018-05-06T06:47:14.326Z,3.50
2018-05-06T06:48:14.339Z,4.00
2018-05-06T06:49:14.354Z,3.70
2018-05-06T06:50:14.366Z,3.90
2018-05-06T06:51:14.384Z,4.00
2018-05-06T06:52:14.395Z,4.50
2018-05-06T06:53:14.412Z,3.70
2018-05-06T06:54:14.426Z,3.50
2018-05-06T06:55:14.442Z,4.10
2018-05-06T06:56:14.453Z,4.20
2018-05-06T06:57:14.468Z,3.50
2018-05-06T06:58:14.483Z,3.80
2018-05-06T06:59:14.497Z,4.40
2018-05-06T07:00:14.517Z,4.00
2018-05-06T07:01:14.533Z,4.50
2018-05-06T07:02:14.546Z,3.80
2018-05-06T07:03:14.557Z,3.90
2018-05-06T07:04:14.571Z,4.10
2018-05-06T07:05:14.589Z,4.00
2018-05-06T07:06:14.599Z,4.10
2018-05-06T07:07:14.615Z,3.70
2018-05-06T07:08:14.628Z,3.40
2018-05-06T07:09:14.644Z,3.80
2018-05-06T07:10:14.658Z,4.20
2018-05-06T07:11:14.699Z,4.10
2018-05-06T07:12:14.687Z,4.10
2018-05-06T07:13:14.704Z,4.60
2018-05-06T07:14:14.717Z,4.20
2018-05-06T07:15:14.731Z,4.10
2018-05-06T07:16:14.745Z,3.50
2018-05-06T07:17:14.763Z,3.80
2018-05-06T07:18:14.776Z,4.70
2018-05-06T07:19:14.849Z,4.00
2018-05-06T07:20:14.806Z,4.00
2018-05-06T07:21:14.821Z,3.70
2018-05-06T07:22:14.836Z,3.80
2018-05-06T07:23:14.851Z,4.30
2018-05-06T07:24:14.867Z,4.40
2018-05-06T07:25:14.880Z,4.80
2018-05-06T07:26:14.897Z,4.30
2018-05-06T07:27:14.915Z,3.80
2018-05-06T07:28:14.929Z,4.10
2018-05-06T07:29:14.942Z,3.70
2018-05-06T07:30:14.955Z,4.40
2018-05-06T07:31:14.976Z,3.90
2018-05-06T07:32:14.987Z,3.70
2018-05-06T07:33:15.000Z,3.80
2018-05-06T07:34:15.017Z,3.80
2018-05-06T07:35:15.036Z,3.70
2018-05-06T07:36:15.047Z,3.80
2018-05-06T07:37:15.063Z,3.40
2018-05-06T07:38:15.077Z,3.30
2018-05-06T07:39:15.093Z,4.00
2018-05-06T07:40:15.107Z,3.90
2018-05-06T07:41:15.124Z,3.80
2018-05-06T07:42:15.138Z,3.80
2018-05-06T07:43:15.159Z,3.80
2018-05-06T07:44:15.167Z,3.20
2018-05-06T07:45:15.184Z,3.40
2018-05-06T07:46:15.201Z,3.60
2018-05-06T07:47:15.215Z,4.00
2018-05-06T07:48:15.234Z,3.80
2018-05-06T07:49:15.249Z,4.00
2018-05-06T07:50:15.260Z,4.10
2018-05-06T07:51:15.277Z,3.90
2018-05-06T07:52:15.292Z,3.80
2018-05-06T07:53:15.309Z,4.40
2018-05-06T07:54:15.323Z,3.80
2018-05-06T07:55:15.337Z,3.60
2018-05-06T07:56:15.352Z,4.00
2018-05-06T07:57:15.367Z,3.70
2018-05-06T07:58:15.385Z,4.00
2018-05-06T07:59:15.399Z,3.70
2018-05-06T08:00:15.414Z,3.60
2018-05-06T08:01:15.431Z,3.80
2018-05-06T08:02:15.446Z,4.00
2018-05-06T08:03:15.462Z,3.90
2018-05-06T08:04:15.477Z,4.00
2018-05-06T08:05:15.492Z,4.60
2018-05-06T08:06:15.507Z,4.50
2018-05-06T08:07:15.523Z,3.40
2018-05-06T08:08:15.539Z,3.80
2018-05-06T08:09:15.555Z,3.40
2018-05-06T08:10:15.569Z,3.80
2018-05-06T08:11:15.587Z,3.80
2018-05-06T08:12:15.601Z,3.80
2018-05-06T08:13:15.621Z,4.30
2018-05-06T08:14:15.632Z,3.90
2018-05-06T08:15:15.648Z,3.80
2018-05-06T08:16:15.668Z,4.00
2018-05-06T08:17:15.678Z,3.40
2018-05-06T08:18:15.696Z,3.50
2018-05-06T08:19:15.709Z,3.90
2018-05-06T08:20:15.725Z,3.80
2018-05-06T08:21:15.741Z,3.80
2018-05-06T08:22:15.757Z,3.20
2018-05-06T08:23:15.773Z,3.50
2018-05-06T08:24:15.788Z,3.20
2018-05-06T08:25:15.805Z,3.50
2018-05-06T08:26:15.823Z,4.20
2018-05-06T08:27:15.836Z,3.40
2018-05-06T08:28:15.852Z,3.70
2018-05-06T08:29:15.867Z,3.90
2018-05-06T08:30:15.884Z,3.70
2018-05-06T08:31:16.070Z,3.70
2018-05-06T08:32:15.917Z,3.70
2018-05-06T08:33:15.932Z,3.60
2018-05-06T08:34:15.948Z,3.60
2018-05-06T08:35:15.968Z,3.40
2018-05-06T08:36:15.980Z,3.70
2018-05-06T08:37:15.998Z,4.00
2018-05-06T08:38:16.014Z,3.90
2018-05-06T08:39:16.030Z,4.00
2018-05-06T08:40:16.045Z,3.80
2018-05-06T08:41:16.061Z,4.30
2018-05-06T08:42:16.078Z,4.30
2018-05-06T08:43:16.098Z,3.80
2018-05-06T08:44:16.112Z,3.50
2018-05-06T08:45:16.127Z,3.70
2018-05-06T08:46:16.146Z,3.80
2018-05-06T08:47:16.161Z,3.60
2018-05-06T08:48:16.179Z,4.10
2018-05-06T08:49:16.196Z,3.50
2018-05-06T08:50:16.211Z,4.00
2018-05-06T08:51:16.235Z,3.20
2018-05-06T08:52:16.244Z,3.70
2018-05-06T08:53:16.259Z,3.70
2018-05-06T08:54:16.278Z,3.40
2018-05-06T08:55:16.293Z,3.90
2018-05-06T08:56:16.312Z,4.20
2018-05-06T08:57:16.333Z,4.40
2018-05-06T08:58:16.341Z,4.20
2018-05-06T08:59:16.359Z,4.40
2018-05-06T09:00:16.376Z,4.10
2018-05-06T09:01:16.394Z,3.90
2018-05-06T09:02:16.410Z,4.20
2018-05-06T09:03:16.426Z,3.80
2018-05-06T09:04:16.445Z,3.90
2018-05-06T09:05:16.464Z,4.10
2018-05-06T09:06:16.477Z,4.60
2018-05-06T09:07:16.494Z,3.50
2018-05-06T09:08:16.511Z,3.90
2018-05-06T09:09:16.533Z,3.60
2018-05-06T09:10:16.550Z,3.60
2018-05-06T09:11:16.561Z,3.60
2018-05-06T09:12:16.582Z,4.20
2018-05-06T09:13:16.597Z,3.20
2018-05-06T09:14:16.612Z,3.50
2018-05-06T09:15:16.630Z,3.90
2018-05-06T09:16:16.649Z,3.30
2018-05-06T09:17:16.661Z,3.80
2018-05-06T09:18:16.678Z,3.80
2018-05-06T09:19:16.696Z,3.40
2018-05-06T09:20:16.711Z,3.80
2018-05-06T09:21:16.730Z,3.30
2018-05-06T09:22:16.745Z,3.40
2018-05-06T09:23:16.771Z,3.30
2018-05-06T09:24:16.781Z,3.70
2018-05-06T09:25:16.821Z,3.40
2018-05-06T09:26:16.812Z,3.50
2018-05-06T09:27:16.832Z,3.90
2018-05-06T09:28:16.844Z,3.70
2018-05-06T09:29:16.863Z,3.30
2018-05-06T09:30:16.879Z,3.60
2018-05-06T09:31:16.900Z,3.60
2018-05-06T09:32:16.918Z,3.60
2018-05-06T09:33:16.939Z,4.10
2018-05-06T09:34:16.948Z,3.90
2018-05-06T09:35:16.964Z,4.00
2018-05-06T09:36:16.982Z,3.40
2018-05-06T09:37:17.000Z,4.60
2018-05-06T09:38:17.013Z,3.60
2018-05-06T09:39:17.033Z,3.50
2018-05-06T09:40:17.049Z,4.10
2018-05-06T09:41:17.067Z,4.10
2018-05-06T09:42:17.084Z,3.80
2018-05-06T09:43:17.101Z,3.80
2018-05-06T09:44:17.121Z,4.40
2018-05-06T09:45:17.136Z,4.10
2018-05-06T09:46:17.153Z,4.00
2018-05-06T09:47:17.174Z,4.40
2018-05-06T09:48:17.186Z,4.00
2018-05-06T09:49:17.206Z,3.90
2018-05-06T09:50:17.225Z,4.00
2018-05-06T09:51:17.240Z,4.40
2018-05-06T09:52:17.259Z,4.00
2018-05-06T09:53:17.278Z,4.60
2018-05-06T09:54:17.294Z,4.40
2018-05-06T09:55:17.312Z,4.20
2018-05-06T09:56:17.329Z,4.30
2018-05-06T09:57:17.347Z,3.50
2018-05-06T09:58:17.365Z,4.70
2018-05-06T09:59:17.385Z,4.60
2018-05-06T10:00:17.400Z,3.90
2018-05-06T10:01:17.418Z,4.10
2018-05-06T10:02:17.437Z,3.40
2018-05-06T10:03:17.455Z,3.50
2018-05-06T10:04:17.475Z,4.20
2018-05-06T10:05:17.488Z,3.90
2018-05-06T10:06:17.510Z,4.30
2018-05-06T10:07:17.525Z,4.70
2018-05-06T10:08:17.569Z,4.20
2018-05-06T10:09:17.565Z,4.60
2018-05-06T10:10:17.582Z,3.80
2018-05-06T10:11:17.600Z,4.70
2018-05-06T10:12:17.619Z,4.20
2018-05-06T10:13:17.637Z,4.50
2018-05-06T10:14:17.657Z,4.00
2018-05-06T10:15:17.676Z,4.00
2018-05-06T10:16:17.692Z,4.20
2018-05-06T10:17:17.712Z,4.60
2018-05-06T10:18:17.732Z,4.00
2018-05-06T10:19:17.750Z,4.30
2018-05-06T10:20:17.767Z,4.10
2018-05-06T10:21:17.788Z,3.40
2018-05-06T10:22:17.857Z,4.20
2018-05-06T10:23:17.823Z,4.80
2018-05-06T10:24:17.843Z,4.80
2018-05-06T10:25:17.862Z,4.40
2018-05-06T10:26:17.890Z,4.70
2018-05-06T10:27:17.899Z,4.30
2018-05-06T10:28:17.920Z,4.60
2018-05-06T10:29:17.939Z,4.40
2018-05-06T10:30:17.957Z,4.30
2018-05-06T10:31:17.977Z,4.30
2018-05-06T10:32:17.997Z,4.40
2018-05-06T10:33:18.017Z,4.80
2018-05-06T10:34:18.034Z,4.50
2018-05-06T10:35:18.054Z,3.80
2018-05-06T10:36:18.087Z,4.40
2018-05-06T10:37:18.091Z,4.10
2018-05-06T10:38:18.109Z,4.50
2018-05-06T10:39:18.136Z,4.70
2018-05-06T10:40:18.149Z,4.20
2018-05-06T10:41:18.168Z,4.10
2018-05-06T10:42:18.256Z,4.10
2018-05-06T10:43:18.207Z,4.60
2018-05-06T10:44:18.268Z,4.00
2018-05-06T10:45:18.248Z,4.30
2018-05-06T10:46:18.270Z,4.50
2018-05-06T10:47:18.285Z,4.30
2018-05-06T10:48:18.303Z,4.20
2018-05-06T10:49:18.350Z,3.80
2018-05-06T10:50:18.414Z,4.20
2018-05-06T10:51:18.361Z,3.90
2018-05-06T10:52:18.380Z,4.20
2018-05-06T10:53:18.398Z,4.20
2018-05-06T10:54:18.421Z,3.80
2018-05-06T10:55:18.439Z,3.80
2018-05-06T10:56:18.458Z,4.20
2018-05-06T10:57:18.480Z,4.10
2018-05-06T10:58:18.497Z,4.50
2018-05-06T10:59:18.516Z,4.60
2018-05-06T11:00:18.538Z,4.80
2018-05-06T11:01:18.558Z,3.60
2018-05-06T11:02:18.575Z,4.00
2018-05-06T11:03:18.592Z,3.90
2018-05-06T11:04:18.611Z,5.10
2018-05-06T11:05:18.631Z,4.80
2018-05-06T11:06:18.652Z,4.10
2018-05-06T11:07:18.675Z,4.10
2018-05-06T11:08:18.690Z,3.60
2018-05-06T11:09:18.708Z,4.10
2018-05-06T11:10:18.839Z,3.90
2018-05-06T11:11:18.748Z,4.70
2018-05-06T11:12:18.766Z,4.20
2018-05-06T11:13:18.785Z,3.70
2018-05-06T11:14:18.805Z,4.10
2018-05-06T11:15:18.824Z,4.60
2018-05-06T11:16:18.844Z,4.50
2018-05-06T11:17:18.863Z,4.90
2018-05-06T11:18:18.882Z,4.30
2018-05-06T11:19:18.903Z,5.10
2018-05-06T11:20:18.921Z,4.30
2018-05-06T11:21:18.942Z,4.60
2018-05-06T11:22:18.962Z,4.60
2018-05-06T11:23:18.979Z,3.90
2018-05-06T11:24:19.002Z,4.90
2018-05-06T11:25:19.018Z,3.70
2018-05-06T11:26:19.114Z,4.60
2018-05-06T11:27:19.056Z,4.50
2018-05-06T11:28:19.076Z,4.70
2018-05-06T11:29:19.095Z,4.10
2018-05-06T11:30:19.118Z,4.80
2018-05-06T11:31:19.138Z,4.30
2018-05-06T11:32:19.157Z,3.90
2018-05-06T11:33:19.195Z,4.10
2018-05-06T11:34:19.195Z,4.50
2018-05-06T11:35:19.216Z,3.70
2018-05-06T11:36:19.288Z,4.30
2018-05-06T11:37:19.259Z,4.40
2018-05-06T11:38:19.276Z,4.80
2018-05-06T11:39:19.296Z,4.30
2018-05-06T11:40:19.321Z,4.40
2018-05-06T11:41:19.337Z,4.90
2018-05-06T11:42:19.356Z,4.50
2018-05-06T11:43:19.375Z,4.50
2018-05-06T11:44:19.397Z,3.80
2018-05-06T11:45:19.415Z,4.90
2018-05-06T11:46:19.436Z,4.60
2018-05-06T11:47:19.457Z,3.90
2018-05-06T11:48:19.475Z,4.60
2018-05-06T11:49:19.497Z,4.30
2018-05-06T11:50:19.516Z,5.00
2018-05-06T11:51:19.540Z,4.20
2018-05-06T11:52:19.556Z,4.20
2018-05-06T11:53:19.576Z,4.20
2018-05-06T11:54:19.599Z,4.20
2018-05-06T11:55:19.616Z,4.60
2018-05-06T11:56:19.643Z,4.10
2018-05-06T11:57:19.660Z,4.30
2018-05-06T11:58:19.676Z,3.80
2018-05-06T11:59:19.698Z,4.60
2018-05-06T12:00:19.719Z,3.90
2018-05-06T12:01:19.740Z,4.30
2018-05-06T12:02:19.793Z,4.30
2018-05-06T12:03:19.787Z,4.10
2018-05-06T12:04:19.799Z,4.50
2018-05-06T12:05:19.819Z,4.10
2018-05-06T12:06:19.837Z,4.30
2018-05-06T12:07:19.861Z,3.80
2018-05-06T12:08:19.880Z,4.40
2018-05-06T12:09:19.905Z,4.30
2018-05-06T12:10:19.923Z,3.80
2018-05-06T12:11:19.944Z,4.20
2018-05-06T12:12:19.965Z,3.90
2018-05-06T12:13:19.983Z,5.00
2018-05-06T12:14:20.005Z,5.10
2018-05-06T12:15:20.024Z,3.80
2018-05-06T12:16:20.046Z,4.50
2018-05-06T12:17:20.065Z,4.20
2018-05-06T12:18:20.087Z,4.10
2018-05-06T12:19:20.195Z,3.40
2018-05-06T12:20:20.129Z,4.50
2018-05-06T12:21:20.154Z,4.30
2018-05-06T12:22:20.171Z,3.60
2018-05-06T12:23:20.191Z,4.70
2018-05-06T12:24:20.211Z,4.30
2018-05-06T12:25:20.239Z,4.10
2018-05-06T12:26:20.253Z,4.30
2018-05-06T12:27:20.277Z,3.80
2018-05-06T12:28:20.295Z,3.80
2018-05-06T12:29:20.316Z,4.40
2018-05-06T12:30:20.336Z,4.20
2018-05-06T12:31:20.359Z,3.90
2018-05-06T12:32:20.378Z,4.10
2018-05-06T12:33:20.399Z,3.80
2018-05-06T12:34:20.431Z,3.80
2018-05-06T12:35:20.442Z,3.80
2018-05-06T12:36:20.461Z,4.70
2018-05-06T12:37:20.482Z,4.50
2018-05-06T12:38:20.503Z,4.50
2018-05-06T12:39:20.528Z,4.40
2018-05-06T12:40:20.551Z,4.00
2018-05-06T12:41:20.565Z,4.30
2018-05-06T12:42:20.670Z,4.70
2018-05-06T12:43:20.621Z,4.60
2018-05-06T12:44:20.629Z,4.30
2018-05-06T12:45:20.649Z,3.80
2018-05-06T12:46:20.673Z,4.60
2018-05-06T12:47:20.693Z,3.60
2018-05-06T12:48:20.719Z,4.00
2018-05-06T12:49:20.746Z,4.00
2018-05-06T12:50:20.764Z,4.60
2018-05-06T12:51:20.780Z,4.60
2018-05-06T12:52:20.798Z,3.70
2018-05-06T12:53:20.820Z,3.80
2018-05-06T12:54:20.843Z,4.10
2018-05-06T12:55:20.932Z,3.60
2018-05-06T12:56:20.885Z,3.80
2018-05-06T12:57:20.904Z,4.00
2018-05-06T12:58:20.929Z,4.50
2018-05-06T12:59:20.950Z,3.90
2018-05-06T13:00:20.973Z,4.40
2018-05-06T13:01:20.992Z,4.30
2018-05-06T13:02:21.046Z,4.60
2018-05-06T13:03:21.037Z,4.10
2018-05-06T13:04:21.058Z,4.80
2018-05-06T13:05:21.081Z,4.50
2018-05-06T13:06:21.102Z,4.80
2018-05-06T13:07:21.126Z,4.20
2018-05-06T13:08:21.144Z,3.90
2018-05-06T13:09:21.167Z,4.10
2018-05-06T13:10:21.189Z,4.40
2018-05-06T13:11:21.260Z,4.50
2018-05-06T13:12:21.233Z,4.10
2018-05-06T13:13:21.259Z,4.10
2018-05-06T13:14:21.279Z,4.90
2018-05-06T13:15:21.300Z,4.70
2018-05-06T13:16:21.321Z,4.50
2018-05-06T13:17:21.342Z,5.30
2018-05-06T13:18:21.363Z,3.50